Time;durP1;ratioP1;P1;durP2;ratioP2;P2;SDS_P1;SDS_P2;PMS_P1;PMS_P2;Temp;Humidity;BMP_temperature;BMP_pressure;BME280_temperature;BME280_humidity;BME280_pressure;Samples;Min_cycle;Max_cycle;Signal;HPM_P1;HPM_P2
2021/04/12 00:02:02;;;;;;;1.93;1.40;;;;;;;;;;5052552;28;20917;-67
2021/04/12 00:04:35;;;;;;;2.40;1.50;;;;;;;;;;5053115;28;20449;-66
2021/04/12 00:07:01;;;;;;;2.30;1.70;;;;;;;;;;5052647;28;20461;-67
2021/04/12 00:09:33;;;;;;;2.10;1.60;;;;;;;;;;5053272;28;20410;-67
2021/04/12 00:12:15;;;;;;;2.70;1.90;;;;;;;;;;5052326;28;20520;-68
2021/04/12 00:14:55;;;;;;;1.90;1.50;;;;;;;;;;5053523;28;20426;-68
2021/04/12 00:17:21;;;;;;;1.93;1.40;;;;;;;;;;5052507;28;20903;-67
2021/04/12 00:19:57;;;;;;;2.13;1.67;;;;;;;;;;5053505;28;20410;-68
2021/04/12 00:22:29;;;;;;;2.60;1.50;;;;;;;;;;5052568;28;20515;-67
2021/04/12 00:24:58;;;;;;;1.97;1.50;;;;;;;;;;5053528;28;20932;-68
2021/04/12 00:27:30;;;;;;;2.23;1.40;;;;;;;;;;5034709;28;20427;-68
2021/04/12 00:30:00;;;;;;;2.77;1.30;;;;;;;;;;5033524;28;20403;-67
2021/04/12 00:32:32;;;;;;;4.07;1.67;;;;;;;;;;5051538;28;20468;-67
2021/04/12 00:35:01;;;;;;;2.20;1.30;;;;;;;;;;5053261;28;20426;-67
2021/04/12 00:37:30;;;;;;;1.83;1.23;;;;;;;;;;5034560;28;20988;-67
2021/04/12 00:40:00;;;;;;;3.07;1.70;;;;;;;;;;5033763;28;20463;-67
2021/04/12 00:42:33;;;;;;;1.93;1.50;;;;;;;;;;5050693;28;20457;-67
2021/04/12 00:45:18;;;;;;;1.90;1.33;;;;;;;;;;5053272;28;21007;-67
2021/04/12 00:47:51;;;;;;;2.50;1.77;;;;;;;;;;5033287;28;20407;-67
2021/04/12 00:50:26;;;;;;;2.20;1.53;;;;;;;;;;5033790;28;20391;-67
2021/04/12 00:52:55;;;;;;;2.90;1.37;;;;;;;;;;5033643;28;20378;-67
2021/04/12 00:55:27;;;;;;;3.43;1.80;;;;;;;;;;5039800;28;20460;-68
2021/04/12 00:58:12;;;;;;;2.67;1.63;;;;;;;;;;5035168;28;20490;-67
2021/04/12 01:00:41;;;;;;;3.17;2.23;;;;;;;;;;5033424;28;20464;-67
2021/04/12 01:03:25;;;;;;;2.20;1.60;;;;;;;;;;5033133;28;20806;-67
2021/04/12 01:06:09;;;;;;;1.80;1.43;;;;;;;;;;5033194;28;20486;-67
2021/04/12 01:08:35;;;;;;;1.93;1.40;;;;;;;;;;5033413;28;20452;-67
2021/04/12 01:11:08;;;;;;;2.13;1.60;;;;;;;;;;5038931;28;20425;-67
2021/04/12 01:13:40;;;;;;;1.70;1.33;;;;;;;;;;5053238;28;20398;-67
2021/04/12 01:16:06;;;;;;;1.77;1.37;;;;;;;;;;5052837;28;20918;-67
2021/04/12 01:18:41;;;;;;;2.10;1.63;;;;;;;;;;5037130;28;20494;-67
2021/04/12 01:21:26;;;;;;;2.53;1.60;;;;;;;;;;5037576;28;20387;-67
2021/04/12 01:23:55;;;;;;;1.67;1.20;;;;;;;;;;5057170;28;20472;-67
2021/04/12 01:26:39;;;;;;;1.70;1.13;;;;;;;;;;5055647;28;20491;-67
2021/04/12 01:29:20;;;;;;;1.50;1.07;;;;;;;;;;5056695;28;20398;-67
2021/04/12 01:31:49;;;;;;;2.43;1.20;;;;;;;;;;5050560;28;20433;-66
2021/04/12 01:34:30;;;;;;;2.13;1.53;;;;;;;;;;5036655;28;20403;-67
2021/04/12 01:37:11;;;;;;;2.13;1.40;;;;;;;;;;5043265;28;20935;-66
2021/04/12 01:39:45;;;;;;;2.17;1.30;;;;;;;;;;5056740;28;20817;-66
2021/04/12 01:42:20;;;;;;;1.87;1.20;;;;;;;;;;5055473;28;20477;-67
2021/04/12 01:44:54;;;;;;;1.87;1.50;;;;;;;;;;5055438;28;20459;-67
2021/04/12 01:47:29;;;;;;;2.50;1.60;;;;;;;;;;5054635;28;20449;-68
2021/04/12 01:50:10;;;;;;;1.60;1.30;;;;;;;;;;5055150;28;20842;-68
2021/04/12 01:53:03;;;;;;;2.27;1.43;;;;;;;;;;5054375;28;20914;-67
2021/04/12 01:55:35;;;;;;;2.47;1.50;;;;;;;;;;5055949;28;20432;-67
2021/04/12 01:58:10;;;;;;;2.00;1.20;;;;;;;;;;5054707;28;20429;-67
2021/04/12 02:00:48;;;;;;;1.90;1.27;;;;;;;;;;5056017;28;20544;-67
2021/04/12 02:03:17;;;;;;;1.80;1.37;;;;;;;;;;5038005;28;21167;-66
2021/04/12 02:05:56;;;;;;;2.20;1.70;;;;;;;;;;5035356;28;20447;-66
2021/04/12 02:08:36;;;;;;;1.83;1.27;;;;;;;;;;5052516;28;20461;-67
2021/04/12 02:11:05;;;;;;;1.60;1.20;;;;;;;;;;5055620;28;20389;-67
2021/04/12 02:13:46;;;;;;;2.47;1.53;;;;;;;;;;5054156;28;20984;-67
2021/04/12 02:16:41;;;;;;;2.20;1.50;;;;;;;;;;5054388;28;20959;-68
2021/04/12 02:19:19;;;;;;;1.70;1.27;;;;;;;;;;5030447;28;20803;-67
2021/04/12 02:22:10;;;;;;;2.40;1.57;;;;;;;;;;5035281;28;20453;-67
2021/04/12 02:24:55;;;;;;;2.47;1.33;;;;;;;;;;5035334;28;20431;-67
2021/04/12 02:27:25;;;;;;;3.00;1.70;;;;;;;;;;5042808;28;20509;-67
2021/04/12 02:30:00;;;;;;;2.43;1.80;;;;;;;;;;5054820;28;20867;-67
2021/04/12 02:32:44;;;;;;;2.20;1.63;;;;;;;;;;5045300;28;20836;-67
2021/04/12 02:35:16;;;;;;;3.30;1.60;;;;;;;;;;5034819;28;20430;-67
2021/04/12 02:37:48;;;;;;;2.10;1.50;;;;;;;;;;5045169;28;20425;-66
2021/04/12 02:40:30;;;;;;;3.30;1.63;;;;;;;;;;5054714;28;20409;-66
2021/04/12 02:43:15;;;;;;;2.30;1.73;;;;;;;;;;5042332;28;20512;-66
2021/04/12 02:45:59;;;;;;;2.33;2.07;;;;;;;;;;5035542;28;20763;-67
2021/04/12 02:48:29;;;;;;;2.57;2.10;;;;;;;;;;5035322;28;20423;-67
2021/04/12 02:51:08;;;;;;;2.37;2.07;;;;;;;;;;5041116;28;20425;-66
2021/04/12 02:53:40;;;;;;;2.67;2.40;;;;;;;;;;5054178;28;20436;-67
2021/04/12 02:56:20;;;;;;;3.87;2.70;;;;;;;;;;5055188;28;20926;-67
2021/04/12 02:59:10;;;;;;;3.07;2.43;;;;;;;;;;5054302;28;20487;-66
2021/04/12 03:01:36;;;;;;;2.93;2.63;;;;;;;;;;5054436;28;20378;-66
2021/04/12 03:04:14;;;;;;;3.77;2.90;;;;;;;;;;5053806;28;20468;-66
2021/04/12 03:06:57;;;;;;;4.43;3.70;;;;;;;;;;5053978;28;20425;-67
2021/04/12 03:09:42;;;;;;;4.20;3.20;;;;;;;;;;5055571;28;20756;-67
2021/04/12 03:12:38;;;;;;;4.00;3.20;;;;;;;;;;5054553;28;20440;-67
2021/04/12 03:15:04;;;;;;;4.03;3.33;;;;;;;;;;5055146;28;20501;-68
2021/04/12 03:17:42;;;;;;;4.97;4.03;;;;;;;;;;5053662;28;20421;-66
2021/04/12 03:20:31;;;;;;;4.33;3.93;;;;;;;;;;5054752;28;20400;-67
2021/04/12 03:23:23;;;;;;;5.10;3.97;;;;;;;;;;5053849;28;20457;-67
2021/04/12 03:25:58;;;;;;;5.87;4.90;;;;;;;;;;5051938;28;20506;-67
2021/04/12 03:28:24;;;;;;;6.80;5.23;;;;;;;;;;5049387;28;20430;-66
2021/04/12 03:30:59;;;;;;;5.33;4.37;;;;;;;;;;5034759;28;20437;-69
2021/04/12 03:33:28;;;;;;;6.03;4.77;;;;;;;;;;5048439;28;20425;-66
2021/04/12 03:35:57;;;;;;;7.77;5.57;;;;;;;;;;5054691;28;20430;-67
2021/04/12 03:38:33;;;;;;;8.60;5.70;;;;;;;;;;5053620;28;20795;-67
2021/04/12 03:41:22;;;;;;;7.50;5.70;;;;;;;;;;5054656;28;20414;-67
2021/04/12 03:44:00;;;;;;;7.20;5.23;;;;;;;;;;5037340;28;20881;-67
2021/04/12 03:46:35;;;;;;;6.50;4.83;;;;;;;;;;5035023;28;20422;-67
2021/04/12 03:49:14;;;;;;;7.33;4.83;;;;;;;;;;5052945;28;20429;-67
2021/04/12 03:51:58;;;;;;;8.00;4.70;;;;;;;;;;5047445;28;20572;-67
2021/04/12 03:54:36;;;;;;;6.70;5.00;;;;;;;;;;5034076;28;20789;-67
2021/04/12 03:57:02;;;;;;;5.30;3.87;;;;;;;;;;5050893;28;20771;-67
2021/04/12 03:59:28;;;;;;;6.07;4.17;;;;;;;;;;5053523;28;20426;-67
2021/04/12 04:02:07;;;;;;;6.53;4.17;;;;;;;;;;5052869;28;20916;-67
2021/04/12 04:04:51;;;;;;;7.67;4.57;;;;;;;;;;5052564;28;20838;-67
2021/04/12 04:07:33;;;;;;;6.30;3.93;;;;;;;;;;5053163;28;20426;-67
2021/04/12 04:10:19;;;;;;;6.77;4.80;;;;;;;;;;5054441;28;20751;-67
2021/04/12 04:13:02;;;;;;;6.40;4.30;;;;;;;;;;5046586;28;20752;-67
2021/04/12 04:15:43;;;;;;;5.10;3.80;;;;;;;;;;5033809;28;20422;-67
2021/04/12 04:18:18;;;;;;;7.80;4.83;;;;;;;;;;5040029;28;20428;-66
2021/04/12 04:21:00;;;;;;;7.37;4.73;;;;;;;;;;5052285;28;20402;-67
2021/04/12 04:23:34;;;;;;;7.70;5.10;;;;;;;;;;5052602;28;21003;-67
2021/04/12 04:26:10;;;;;;;6.23;3.80;;;;;;;;;;5050471;28;20452;-67
2021/04/12 04:28:46;;;;;;;7.97;5.60;;;;;;;;;;5053694;28;20394;-67
2021/04/12 04:31:27;;;;;;;7.00;4.63;;;;;;;;;;5041531;28;20496;-69
2021/04/12 04:34:14;;;;;;;6.63;4.23;;;;;;;;;;5034077;28;20387;-68
2021/04/12 04:37:04;;;;;;;8.40;4.93;;;;;;;;;;5047361;28;20425;-67
2021/04/12 04:39:30;;;;;;;7.17;4.93;;;;;;;;;;5033709;28;20464;-67
2021/04/12 04:42:05;;;;;;;4.67;3.57;;;;;;;;;;5051941;28;20438;-68
2021/04/12 04:44:50;;;;;;;6.10;4.07;;;;;;;;;;5053111;28;20422;-67
2021/04/12 04:47:29;;;;;;;6.37;4.27;;;;;;;;;;5052679;28;20413;-67
2021/04/12 04:49:55;;;;;;;7.57;4.23;;;;;;;;;;5051317;28;20390;-68
2021/04/12 04:52:40;;;;;;;5.57;3.93;;;;;;;;;;5057138;28;20775;-67
2021/04/12 04:55:09;;;;;;;4.90;3.40;;;;;;;;;;5056049;28;20413;-66
2021/04/12 04:57:43;;;;;;;4.13;2.53;;;;;;;;;;5056669;28;20886;-66
2021/04/12 05:00:12;;;;;;;4.60;2.80;;;;;;;;;;5055680;28;20874;-67
2021/04/12 05:02:38;;;;;;;5.03;3.27;;;;;;;;;;5056648;28;20536;-67
2021/04/12 05:05:07;;;;;;;4.80;3.80;;;;;;;;;;5055371;28;20517;-68
2021/04/12 05:07:45;;;;;;;4.60;3.40;;;;;;;;;;5056948;28;20396;-67
2021/04/12 05:10:17;;;;;;;5.20;4.27;;;;;;;;;;5055343;28;20382;-67
2021/04/12 05:12:53;;;;;;;9.20;3.73;;;;;;;;;;5037851;28;20891;-67
2021/04/12 05:15:22;;;;;;;5.40;3.77;;;;;;;;;;5039540;28;20451;-67
2021/04/12 05:18:00;;;;;;;5.70;3.70;;;;;;;;;;5058310;28;20410;-67
2021/04/12 05:20:26;;;;;;;5.13;4.00;;;;;;;;;;5056415;28;20414;-68
2021/04/12 05:22:58;;;;;;;4.00;3.40;;;;;;;;;;5055868;28;20757;-69
2021/04/12 05:25:27;;;;;;;5.00;3.60;;;;;;;;;;5053995;28;20448;-69
2021/04/12 05:28:09;;;;;;;5.67;3.63;;;;;;;;;;5053299;28;20508;-69
2021/04/12 05:30:46;;;;;;;4.07;2.87;;;;;;;;;;5056121;28;20413;-69
2021/04/12 05:33:21;;;;;;;3.40;2.63;;;;;;;;;;5058903;28;20405;-68
2021/04/12 05:36:06;;;;;;;3.67;3.27;;;;;;;;;;5057693;28;20581;-69
2021/04/12 05:38:58;;;;;;;5.43;3.30;;;;;;;;;;5058021;28;20406;-69
2021/04/12 05:41:37;;;;;;;4.13;2.70;;;;;;;;;;5026054;28;20516;-67
2021/04/12 05:44:06;;;;;;;3.27;2.50;;;;;;;;;;5056822;28;20444;-68
2021/04/12 05:46:32;;;;;;;4.27;3.17;;;;;;;;;;5055645;28;20458;-68
2021/04/12 05:49:21;;;;;;;3.83;3.43;;;;;;;;;;5059268;28;20402;-68
2021/04/12 05:51:51;;;;;;;4.43;3.60;;;;;;;;;;5046040;28;20441;-68
2021/04/12 05:54:36;;;;;;;3.60;2.80;;;;;;;;;;5058171;28;20410;-69
2021/04/12 05:57:14;;;;;;;6.40;2.70;;;;;;;;;;5054409;28;20490;-68
2021/04/12 05:59:59;;;;;;;3.13;2.30;;;;;;;;;;5056396;28;20402;-68
2021/04/12 06:02:25;;;;;;;3.40;2.60;;;;;;;;;;5042592;28;20433;-68
2021/04/12 06:05:06;;;;;;;3.10;2.53;;;;;;;;;;5036665;28;20508;-68
2021/04/12 06:07:51;;;;;;;3.27;2.37;;;;;;;;;;5036204;28;20433;-68
2021/04/12 06:10:35;;;;;;;3.17;2.67;;;;;;;;;;5036387;28;20431;-68
2021/04/12 06:13:06;;;;;;;2.50;2.20;;;;;;;;;;5053257;28;20464;-67
2021/04/12 06:15:47;;;;;;;3.80;2.23;;;;;;;;;;5056421;28;20421;-67
2021/04/12 06:18:19;;;;;;;3.60;2.90;;;;;;;;;;5054773;28;20524;-68
2021/04/12 06:21:00;;;;;;;3.53;2.33;;;;;;;;;;5054186;28;20415;-68
2021/04/12 06:23:34;;;;;;;4.80;2.77;;;;;;;;;;5042485;28;20468;-66
2021/04/12 06:26:12;;;;;;;3.73;2.63;;;;;;;;;;5055088;28;20779;-67
2021/04/12 06:28:56;;;;;;;4.10;2.33;;;;;;;;;;5037387;28;20417;-67
2021/04/12 06:31:25;;;;;;;2.90;2.37;;;;;;;;;;5043782;28;20421;-67
2021/04/12 06:33:52;;;;;;;8.30;2.67;;;;;;;;;;5068133;28;20417;-68
2021/04/12 06:36:18;;;;;;;3.90;2.20;;;;;;;;;;5073026;28;20488;-68
2021/04/12 06:39:02;;;;;;;4.63;3.33;;;;;;;;;;5055476;28;20426;-68
2021/04/12 06:41:47;;;;;;;5.67;3.27;;;;;;;;;;5055558;28;20432;-68
2021/04/12 06:44:30;;;;;;;5.23;3.30;;;;;;;;;;5053810;28;20463;-66
2021/04/12 06:47:08;;;;;;;3.77;2.83;;;;;;;;;;5051284;28;20521;-68
2021/04/12 06:49:53;;;;;;;3.43;2.40;;;;;;;;;;5047694;28;20445;-67
2021/04/12 06:52:19;;;;;;;4.73;2.60;;;;;;;;;;5045033;28;20435;-67
2021/04/12 06:55:04;;;;;;;4.50;2.70;;;;;;;;;;5055127;28;20460;-67
2021/04/12 06:57:49;;;;;;;3.87;2.97;;;;;;;;;;5053465;28;20416;-67
2021/04/12 07:00:27;;;;;;;3.63;2.60;;;;;;;;;;5049797;28;20410;-67
2021/04/12 07:03:12;;;;;;;2.83;2.33;;;;;;;;;;5045643;28;20852;-71
2021/04/12 07:05:38;;;;;;;4.07;3.10;;;;;;;;;;5047474;28;20445;-74
2021/04/12 07:08:16;;;;;;;4.65;2.97;;;;;;;;;;5049910;28;20809;-68
2021/04/12 07:10:57;;;;;;;4.20;3.20;;;;;;;;;;5042619;28;20549;-72
2021/04/12 07:13:29;;;;;;;4.57;3.53;;;;;;;;;;5048355;28;20485;-75
2021/04/12 07:16:14;;;;;;;4.80;3.22;;;;;;;;;;5043004;28;21182;-70
2021/04/12 07:18:46;;;;;;;7.13;3.60;;;;;;;;;;5046546;28;20219;-69
2021/04/12 07:21:22;;;;;;;4.23;3.47;;;;;;;;;;5050379;28;20432;-69
2021/04/12 07:23:48;;;;;;;5.60;3.70;;;;;;;;;;5047324;28;21105;-66
2021/04/12 07:26:33;;;;;;;5.32;3.67;;;;;;;;;;5045362;28;20458;-68
2021/04/12 07:29:07;;;;;;;5.67;3.93;;;;;;;;;;5043075;28;20248;-68
2021/04/12 07:31:54;;;;;;;4.90;3.50;;;;;;;;;;5042063;28;20429;-67
2021/04/12 07:34:20;;;;;;;5.37;3.77;;;;;;;;;;5044674;28;20476;-68
2021/04/12 07:36:52;;;;;;;3.83;3.03;;;;;;;;;;5045986;28;20432;-68
2021/04/12 07:39:18;;;;;;;4.93;3.50;;;;;;;;;;5048362;28;20452;-69
2021/04/12 07:42:15;;;;;;;5.60;4.17;;;;;;;;;;5044928;28;21560;-71
2021/04/12 07:44:53;;;;;;;17.77;9.47;;;;;;;;;;5044279;28;20456;-68
2021/04/12 07:47:20;;;;;;;6.40;3.87;;;;;;;;;;5054792;28;21053;-69
2021/04/12 07:49:46;;;;;;;5.40;4.07;;;;;;;;;;5050774;28;20883;-68
2021/04/12 07:52:21;;;;;;;5.00;3.33;;;;;;;;;;5049079;28;20421;-71
2021/04/12 07:55:02;;;;;;;4.40;3.03;;;;;;;;;;5050198;28;20547;-71
2021/04/12 07:57:44;;;;;;;6.20;4.43;;;;;;;;;;5046363;28;20925;-67
2021/04/12 08:00:28;;;;;;;5.10;3.77;;;;;;;;;;5061752;28;20182;-67
2021/04/12 08:03:00;;;;;;;6.07;4.37;;;;;;;;;;5046250;28;20465;-69
2021/04/12 08:05:26;;;;;;;5.10;3.53;;;;;;;;;;5054050;28;20462;-69
2021/04/12 08:08:11;;;;;;;6.25;4.22;;;;;;;;;;5048311;28;20431;-65
2021/04/12 08:10:56;;;;;;;4.53;3.40;;;;;;;;;;5052015;28;20228;-66
2021/04/12 08:13:40;;;;;;;5.20;3.83;;;;;;;;;;5051689;28;20458;-70
2021/04/12 08:16:19;;;;;;;4.97;3.80;;;;;;;;;;5052418;28;20832;-68
2021/04/12 08:18:57;;;;;;;6.38;4.15;;;;;;;;;;5060508;28;20493;-67
2021/04/12 08:21:35;;;;;;;6.68;4.60;;;;;;;;;;5052119;28;20434;-69
2021/04/12 08:24:20;;;;;;;7.47;4.43;;;;;;;;;;5051688;28;20489;-68
2021/04/12 08:26:46;;;;;;;8.32;5.05;;;;;;;;;;5046395;28;20517;-68
2021/04/12 08:29:31;;;;;;;7.05;4.28;;;;;;;;;;5051097;28;20415;-71
2021/04/12 08:32:15;;;;;;;6.65;4.88;;;;;;;;;;5049510;28;20417;-66
2021/04/12 08:35:00;;;;;;;5.50;4.00;;;;;;;;;;5047977;28;20785;-73
2021/04/12 08:37:29;;;;;;;6.33;4.17;;;;;;;;;;5044148;28;20523;-73
2021/04/12 08:40:12;;;;;;;6.63;4.10;;;;;;;;;;5044526;28;20407;-69
2021/04/12 08:42:56;;;;;;;5.40;4.10;;;;;;;;;;5047806;28;20199;-69
2021/04/12 08:45:32;;;;;;;6.87;4.83;;;;;;;;;;5041930;28;20449;-68
2021/04/12 08:48:16;;;;;;;6.80;4.70;;;;;;;;;;5039080;28;20417;-67
2021/04/12 08:51:03;;;;;;;6.70;4.50;;;;;;;;;;5048215;28;20450;-62
2021/04/12 08:53:35;;;;;;;8.10;5.00;;;;;;;;;;5050621;28;20463;-67
2021/04/12 08:56:07;;;;;;;6.88;4.20;;;;;;;;;;5046679;28;20426;-68
2021/04/12 08:58:39;;;;;;;7.90;5.30;;;;;;;;;;5055890;28;20178;-67
2021/04/12 09:01:27;;;;;;;7.18;4.63;;;;;;;;;;5049036;28;20515;-65
2021/04/12 09:04:06;;;;;;;6.27;4.33;;;;;;;;;;5049508;28;20202;-66
2021/04/12 09:06:38;;;;;;;5.97;4.13;;;;;;;;;;5042480;28;20969;-66
2021/04/12 09:09:16;;;;;;;6.10;4.50;;;;;;;;;;5039148;28;20919;-66
2021/04/12 09:11:46;;;;;;;5.17;4.00;;;;;;;;;;5050376;28;20429;-66
2021/04/12 09:14:21;;;;;;;4.90;3.73;;;;;;;;;;5049441;28;20470;-66
2021/04/12 09:17:06;;;;;;;6.70;4.63;;;;;;;;;;5043187;28;21776;-65
2021/04/12 09:19:40;;;;;;;4.90;3.93;;;;;;;;;;5049123;28;20466;-65
2021/04/12 09:22:12;;;;;;;4.57;3.53;;;;;;;;;;5048561;28;20424;-68
2021/04/12 09:24:42;;;;;;;5.60;3.83;;;;;;;;;;5040836;28;20514;-68
2021/04/12 09:27:13;;;;;;;5.13;3.53;;;;;;;;;;5045569;28;20857;-68
2021/04/12 09:29:43;;;;;;;7.03;4.20;;;;;;;;;;5042049;28;20430;-69
2021/04/12 09:32:23;;;;;;;8.80;4.00;;;;;;;;;;5047923;28;20473;-65
2021/04/12 09:35:07;;;;;;;4.00;3.40;;;;;;;;;;5050866;28;20955;-67
2021/04/12 09:37:39;;;;;;;6.30;4.30;;;;;;;;;;5052106;28;20511;-64
2021/04/12 09:40:24;;;;;;;4.03;3.40;;;;;;;;;;5055377;28;20510;-66
2021/04/12 09:43:08;;;;;;;3.97;3.27;;;;;;;;;;5052275;28;20461;-65
2021/04/12 09:45:49;;;;;;;5.10;3.30;;;;;;;;;;5051413;28;20404;-64
2021/04/12 09:48:34;;;;;;;3.90;3.03;;;;;;;;;;5052344;28;20167;-63
2021/04/12 09:51:12;;;;;;;5.10;3.60;;;;;;;;;;5054110;28;20486;-65
2021/04/12 09:53:56;;;;;;;6.60;3.40;;;;;;;;;;5052083;28;20472;-67
2021/04/12 09:56:41;;;;;;;4.20;3.10;;;;;;;;;;5051112;28;20422;-63
2021/04/12 09:59:18;;;;;;;4.23;3.00;;;;;;;;;;5048954;28;20481;-63
2021/04/12 10:01:44;;;;;;;7.73;4.70;;;;;;;;;;5055533;28;20963;-63
2021/04/12 10:04:26;;;;;;;5.80;4.30;;;;;;;;;;5052401;28;20457;-65
2021/04/12 10:07:11;;;;;;;6.93;4.47;;;;;;;;;;5045434;28;20402;-63
2021/04/12 10:09:46;;;;;;;8.63;4.17;;;;;;;;;;5052628;28;20459;-64
2021/04/12 10:12:22;;;;;;;3.90;2.70;;;;;;;;;;5052059;28;20421;-64
2021/04/12 10:14:50;;;;;;;4.63;3.63;;;;;;;;;;5051286;28;20497;-64
2021/04/12 10:17:23;;;;;;;4.40;3.37;;;;;;;;;;5054606;28;20414;-65
2021/04/12 10:19:49;;;;;;;4.00;2.63;;;;;;;;;;5052349;28;20507;-66
2021/04/12 10:22:16;;;;;;;6.03;3.30;;;;;;;;;;5053415;28;20424;-63
2021/04/12 10:24:42;;;;;;;3.57;2.57;;;;;;;;;;5052581;28;20457;-64
2021/04/12 10:27:11;;;;;;;3.53;2.70;;;;;;;;;;5056156;28;20428;-64
2021/04/12 10:29:43;;;;;;;4.45;2.80;;;;;;;;;;5052044;28;20477;-66
2021/04/12 10:32:12;;;;;;;3.67;3.00;;;;;;;;;;5055357;28;20492;-66
2021/04/12 10:34:43;;;;;;;4.43;3.30;;;;;;;;;;5052259;28;20444;-65
2021/04/12 10:37:15;;;;;;;3.97;2.40;;;;;;;;;;5055770;28;20440;-67
2021/04/12 10:39:58;;;;;;;3.23;2.60;;;;;;;;;;5052635;28;20783;-66
2021/04/12 10:42:38;;;;;;;4.57;3.80;;;;;;;;;;5051499;28;20444;-65
2021/04/12 10:45:07;;;;;;;4.50;2.83;;;;;;;;;;5053296;28;20429;-64
2021/04/12 10:47:36;;;;;;;4.37;3.50;;;;;;;;;;5049880;28;20435;-64
2021/04/12 10:50:25;;;;;;;3.50;2.97;;;;;;;;;;5058084;28;20401;-62
2021/04/12 10:53:00;;;;;;;4.00;3.27;;;;;;;;;;5044822;28;20437;-64
2021/04/12 10:55:26;;;;;;;4.30;3.10;;;;;;;;;;5044904;28;20470;-66
2021/04/12 10:58:11;;;;;;;5.77;3.20;;;;;;;;;;5046212;28;20436;-66
2021/04/12 11:00:46;;;;;;;3.60;2.63;;;;;;;;;;5051838;28;20421;-66
2021/04/12 11:03:14;;;;;;;4.10;3.20;;;;;;;;;;5053265;28;20462;-65
2021/04/12 11:05:43;;;;;;;4.47;2.87;;;;;;;;;;5052158;28;20457;-65
2021/04/12 11:08:27;;;;;;;5.00;2.67;;;;;;;;;;5052720;28;20424;-65
2021/04/12 11:11:13;;;;;;;3.07;2.57;;;;;;;;;;5051098;28;20897;-65
2021/04/12 11:13:46;;;;;;;4.43;3.10;;;;;;;;;;5051779;28;20841;-66
2021/04/12 11:16:15;;;;;;;4.20;2.88;;;;;;;;;;5050578;28;20423;-65
2021/04/12 11:18:43;;;;;;;3.97;3.30;;;;;;;;;;5048497;28;20182;-66
2021/04/12 11:21:33;;;;;;;5.15;3.30;;;;;;;;;;5049702;28;20757;-66
2021/04/12 11:23:59;;;;;;;3.90;3.40;;;;;;;;;;5032849;28;20236;-66
2021/04/12 11:26:31;;;;;;;4.27;2.70;;;;;;;;;;5050823;28;20430;-66
2021/04/12 11:29:23;;;;;;;3.93;3.20;;;;;;;;;;5044239;28;20436;-65
2021/04/12 11:31:52;;;;;;;7.13;3.07;;;;;;;;;;5022364;28;20418;-66
2021/04/12 11:34:26;;;;;;;3.57;3.23;;;;;;;;;;5057361;28;20837;-66
2021/04/12 11:37:11;;;;;;;4.23;3.00;;;;;;;;;;5042646;28;20429;-66
2021/04/12 11:39:39;;;;;;;3.40;2.60;;;;;;;;;;5051843;28;20440;-65
2021/04/12 11:42:05;;;;;;;3.10;2.33;;;;;;;;;;5048007;28;20460;-65
2021/04/12 11:44:43;;;;;;;4.70;3.23;;;;;;;;;;5050966;28;20584;-65
2021/04/12 11:47:18;;;;;;;3.97;3.30;;;;;;;;;;5050574;28;20609;-65
2021/04/12 11:49:50;;;;;;;5.03;3.20;;;;;;;;;;5053261;28;20415;-65
2021/04/12 11:52:16;;;;;;;3.90;2.70;;;;;;;;;;5052194;28;20426;-66
2021/04/12 11:54:45;;;;;;;4.20;2.90;;;;;;;;;;5052624;28;20570;-66
2021/04/12 11:57:20;;;;;;;3.70;2.90;;;;;;;;;;5050005;28;20439;-66
2021/04/12 11:59:46;;;;;;;5.00;3.00;;;;;;;;;;5050160;28;20522;-66
2021/04/12 12:02:31;;;;;;;3.87;2.90;;;;;;;;;;5046381;28;20524;-65
2021/04/12 12:05:00;;;;;;;4.40;2.90;;;;;;;;;;5050075;28;20544;-65
2021/04/12 12:07:33;;;;;;;5.17;3.47;;;;;;;;;;5049477;28;20425;-65
2021/04/12 12:10:17;;;;;;;4.57;2.80;;;;;;;;;;5050742;28;20547;-65
2021/04/12 12:12:46;;;;;;;4.13;3.13;;;;;;;;;;5048276;28;20445;-65
2021/04/12 12:15:30;;;;;;;4.13;3.20;;;;;;;;;;5049919;28;20953;-65
2021/04/12 12:17:56;;;;;;;5.40;3.93;;;;;;;;;;5051904;28;20409;-66
2021/04/12 12:20:39;;;;;;;5.37;3.63;;;;;;;;;;5052456;28;20869;-65
2021/04/12 12:23:05;;;;;;;4.13;3.13;;;;;;;;;;5051796;28;20964;-66
2021/04/12 12:25:39;;;;;;;5.93;4.17;;;;;;;;;;5052011;28;20953;-66
2021/04/12 12:28:17;;;;;;;5.13;3.43;;;;;;;;;;5048523;28;20505;-66
2021/04/12 12:30:43;;;;;;;4.80;3.80;;;;;;;;;;5049769;28;20512;-67
2021/04/12 12:33:15;;;;;;;6.70;4.10;;;;;;;;;;5050949;28;20448;-66
2021/04/12 12:35:50;;;;;;;5.50;3.60;;;;;;;;;;5050753;28;20987;-67
2021/04/12 12:38:22;;;;;;;6.90;4.33;;;;;;;;;;5050407;28;20490;-67
2021/04/12 12:40:53;;;;;;;4.80;3.70;;;;;;;;;;5052299;28;20416;-67
2021/04/12 12:43:22;;;;;;;4.80;4.00;;;;;;;;;;5048018;28;20465;-66
2021/04/12 12:45:48;;;;;;;5.90;3.73;;;;;;;;;;5047441;28;20750;-66
2021/04/12 12:48:33;;;;;;;5.63;3.70;;;;;;;;;;5050648;28;20504;-66
2021/04/12 12:51:10;;;;;;;5.40;4.37;;;;;;;;;;5051103;28;20445;-67
2021/04/12 12:53:37;;;;;;;4.50;3.83;;;;;;;;;;5036525;28;20421;-67
2021/04/12 12:56:13;;;;;;;6.17;4.10;;;;;;;;;;5050141;28;20453;-67
2021/04/12 12:58:40;;;;;;;4.17;3.23;;;;;;;;;;5051302;28;20416;-67
2021/04/12 13:01:10;;;;;;;5.07;3.97;;;;;;;;;;5045969;28;20867;-67
2021/04/12 13:03:43;;;;;;;5.60;4.40;;;;;;;;;;5046641;28;20499;-67
2021/04/12 13:06:16;;;;;;;3.90;3.50;;;;;;;;;;5050623;28;20548;-67
2021/04/12 13:09:08;;;;;;;3.87;2.90;;;;;;;;;;5051421;28;21057;-67
2021/04/12 13:11:41;;;;;;;3.60;2.93;;;;;;;;;;5023300;28;20440;-67
2021/04/12 13:14:12;;;;;;;4.23;3.10;;;;;;;;;;5052350;28;20426;-67
2021/04/12 13:16:39;;;;;;;3.90;3.37;;;;;;;;;;5055108;28;20469;-67
2021/04/12 13:19:06;;;;;;;6.07;3.73;;;;;;;;;;5051738;28;20433;-67
2021/04/12 13:21:35;;;;;;;3.57;2.90;;;;;;;;;;5045940;28;20834;-65
2021/04/12 13:24:08;;;;;;;3.60;2.67;;;;;;;;;;5051870;28;20472;-66
2021/04/12 13:26:48;;;;;;;4.90;3.43;;;;;;;;;;5056761;28;20484;-67
2021/04/12 13:29:20;;;;;;;4.43;3.30;;;;;;;;;;5053605;28;20800;-65
2021/04/12 13:31:52;;;;;;;4.80;3.50;;;;;;;;;;5049956;28;20429;-65
2021/04/12 13:34:21;;;;;;;3.83;2.77;;;;;;;;;;5055377;28;20788;-65
2021/04/12 13:36:51;;;;;;;5.47;3.30;;;;;;;;;;5046615;28;20430;-65
2021/04/12 13:39:24;;;;;;;3.50;2.80;;;;;;;;;;5052581;28;20417;-65
2021/04/12 13:41:50;;;;;;;4.17;3.20;;;;;;;;;;5047399;28;20548;-65
2021/04/12 13:44:18;;;;;;;4.93;3.33;;;;;;;;;;5053110;28;20462;-65
2021/04/12 13:46:53;;;;;;;6.23;3.80;;;;;;;;;;5046761;28;20964;-64
2021/04/12 13:49:24;;;;;;;4.50;3.50;;;;;;;;;;5052407;28;20593;-65
2021/04/12 13:51:52;;;;;;;4.43;2.97;;;;;;;;;;5041554;28;20437;-65
2021/04/12 13:54:21;;;;;;;4.80;4.17;;;;;;;;;;5042221;28;20914;-65
2021/04/12 13:56:53;;;;;;;6.83;4.10;;;;;;;;;;5043878;28;20757;-65
2021/04/12 13:59:39;;;;;;;4.53;3.53;;;;;;;;;;5046712;28;20451;-65
2021/04/12 14:02:08;;;;;;;5.43;4.27;;;;;;;;;;5046436;28;21205;-65
2021/04/12 14:04:39;;;;;;;6.70;4.20;;;;;;;;;;5048680;28;20500;-65
2021/04/12 14:07:21;;;;;;;6.63;5.03;;;;;;;;;;5051397;28;20791;-66
2021/04/12 14:09:52;;;;;;;4.93;3.90;;;;;;;;;;5049154;28;20424;-66
2021/04/12 14:12:25;;;;;;;6.70;4.03;;;;;;;;;;5044415;28;20423;-64
2021/04/12 14:14:51;;;;;;;6.70;4.00;;;;;;;;;;5047341;28;20465;-66
2021/04/12 14:17:23;;;;;;;5.40;4.10;;;;;;;;;;5052739;28;20425;-66
2021/04/12 14:19:51;;;;;;;5.40;4.17;;;;;;;;;;5048605;28;20438;-66
2021/04/12 14:22:24;;;;;;;5.50;3.87;;;;;;;;;;5043291;28;20442;-70
2021/04/12 14:24:52;;;;;;;7.43;4.77;;;;;;;;;;5044782;28;20549;-66
2021/04/12 14:27:25;;;;;;;5.57;4.30;;;;;;;;;;5044908;28;20415;-66
2021/04/12 14:30:04;;;;;;;5.90;4.27;;;;;;;;;;5049788;28;20513;-66
2021/04/12 14:32:35;;;;;;;7.03;4.90;;;;;;;;;;5046301;28;20426;-65
2021/04/12 14:35:07;;;;;;;5.43;4.17;;;;;;;;;;5047719;28;20452;-64
2021/04/12 14:37:34;;;;;;;7.23;5.30;;;;;;;;;;5044930;28;20429;-64
2021/04/12 14:40:09;;;;;;;5.33;4.30;;;;;;;;;;5046250;28;20410;-64
2021/04/12 14:42:38;;;;;;;5.90;4.70;;;;;;;;;;5051031;28;20421;-66
2021/04/12 14:45:08;;;;;;;8.37;4.70;;;;;;;;;;5050330;28;20483;-65
2021/04/12 14:47:36;;;;;;;6.43;4.80;;;;;;;;;;5049559;28;20424;-68
2021/04/12 14:50:06;;;;;;;5.97;4.77;;;;;;;;;;5049763;28;20445;-66
2021/04/12 14:52:55;;;;;;;6.80;4.10;;;;;;;;;;5045779;28;20397;-66
2021/04/12 14:55:21;;;;;;;5.40;4.37;;;;;;;;;;5056339;28;20465;-66
2021/04/12 14:57:49;;;;;;;5.70;4.40;;;;;;;;;;5053414;28;20452;-69
2021/04/12 15:00:15;;;;;;;6.90;4.27;;;;;;;;;;5051993;28;20436;-63
2021/04/12 15:02:47;;;;;;;5.60;4.00;;;;;;;;;;5049549;28;20434;-64
2021/04/12 15:05:15;;;;;;;7.90;5.07;;;;;;;;;;5048850;28;20514;-65
2021/04/12 15:08:01;;;;;;;4.83;4.13;;;;;;;;;;5045186;28;20426;-65
2021/04/12 15:10:32;;;;;;;6.33;4.47;;;;;;;;;;5046453;28;20949;-63
2021/04/12 15:13:21;;;;;;;5.33;4.23;;;;;;;;;;5044677;28;20498;-67
2021/04/12 15:15:48;;;;;;;5.60;3.87;;;;;;;;;;5041882;28;20449;-67
2021/04/12 15:18:16;;;;;;;5.80;3.93;;;;;;;;;;5043545;28;20432;-69
2021/04/12 15:20:54;;;;;;;6.97;4.77;;;;;;;;;;5042194;28;20434;-68
2021/04/12 15:23:20;;;;;;;5.37;4.03;;;;;;;;;;5045633;28;20441;-69
2021/04/12 15:25:49;;;;;;;5.60;4.20;;;;;;;;;;5049273;28;20448;-68
2021/04/12 15:28:26;;;;;;;4.63;3.50;;;;;;;;;;5043448;28;20403;-68
2021/04/12 15:31:32;;;;;;;6.00;4.10;;;;;;;;;;5046793;28;20421;-66
2021/04/12 15:34:00;;;;;;;7.17;3.73;;;;;;;;;;5045071;28;20424;-63